createdAt,value
2022-09-27T00:01:07.835Z,1.17
2022-09-27T00:03:36.086Z,2.00
2022-09-27T00:06:15.317Z,1.48
2022-09-27T00:08:43.406Z,1.33
2022-09-27T00:11:20.369Z,1.83
2022-09-27T00:13:47.840Z,1.25
2022-09-27T00:16:15.414Z,1.40
2022-09-27T00:18:42.991Z,1.40
2022-09-27T00:21:13.791Z,1.33
2022-09-27T00:23:41.377Z,2.25
2022-09-27T00:26:11.543Z,1.27
2022-09-27T00:28:39.160Z,1.63
2022-09-27T00:31:20.236Z,1.50
2022-09-27T00:38:48.026Z,1.40
2022-09-27T00:41:18.888Z,1.30
2022-09-27T00:43:48.350Z,1.40
2022-09-27T00:46:31.536Z,1.40
2022-09-27T00:49:24.149Z,1.52
2022-09-27T00:51:57.805Z,1.92
2022-09-27T00:54:27.966Z,1.40
2022-09-27T00:56:56.429Z,1.55
2022-09-27T00:59:29.379Z,1.52
2022-09-27T01:01:57.334Z,1.40
2022-09-27T01:04:29.217Z,1.55
2022-09-27T01:06:56.908Z,1.42
2022-09-27T01:09:24.895Z,2.03
2022-09-27T01:12:18.428Z,1.70
2022-09-27T01:15:13.675Z,1.50
2022-09-27T01:18:02.533Z,1.30
2022-09-27T01:20:48.612Z,1.58
2022-09-27T01:23:34.246Z,1.42
2022-09-27T01:26:35.943Z,1.30
2022-09-27T01:29:24.249Z,1.48
2022-09-27T01:32:18.564Z,1.17
2022-09-27T01:34:50.287Z,1.88
2022-09-27T01:37:40.156Z,1.45
2022-09-27T01:40:28.942Z,1.65
2022-09-27T01:43:29.845Z,1.70
2022-09-27T01:46:17.698Z,1.60
2022-09-27T01:49:20.662Z,1.75
2022-09-27T01:51:59.592Z,1.92
2022-09-27T01:54:45.043Z,1.38
2022-09-27T01:58:00.840Z,2.47
2022-09-27T02:00:29.432Z,1.45
2022-09-27T02:03:08.168Z,1.30
2022-09-27T02:05:47.610Z,1.52
2022-09-27T02:08:53.224Z,2.00
2022-09-27T02:11:40.351Z,2.38
2022-09-27T02:14:18.246Z,1.38
2022-09-27T02:16:51.876Z,2.03
2022-09-27T02:19:37.057Z,1.33
2022-09-27T02:22:10.469Z,1.77
2022-09-27T02:25:01.466Z,1.90
2022-09-27T02:27:47.378Z,1.20
2022-09-27T02:30:16.419Z,1.50
2022-09-27T02:32:47.687Z,1.17
2022-09-27T02:35:20.905Z,1.95
2022-09-27T02:37:48.672Z,1.27
2022-09-27T02:40:16.362Z,1.58
2022-09-27T02:42:45.130Z,1.48
2022-09-27T02:45:15.452Z,1.50
2022-09-27T02:47:59.341Z,1.33
2022-09-27T02:50:59.585Z,1.48
2022-09-27T02:54:05.436Z,1.42
2022-09-27T02:57:12.524Z,1.42
2022-09-27T03:00:18.062Z,1.60
2022-09-27T03:03:43.794Z,1.23
2022-09-27T03:06:14.953Z,1.50
2022-09-27T03:08:43.871Z,1.50
2022-09-27T03:11:11.534Z,1.58
2022-09-27T03:14:01.396Z,1.40
2022-09-27T03:16:27.619Z,1.80
2022-09-27T03:19:09.837Z,1.45
2022-09-27T03:22:00.681Z,1.42
2022-09-27T03:24:28.460Z,1.60
2022-09-27T03:26:56.092Z,2.00
2022-09-27T03:29:23.594Z,1.20
2022-09-27T03:31:58.331Z,1.58
2022-09-27T03:34:43.898Z,1.50
2022-09-27T03:37:11.355Z,1.35
2022-09-27T03:39:38.826Z,1.25
2022-09-27T03:42:06.597Z,1.38
2022-09-27T03:44:35.250Z,1.42
2022-09-27T03:47:02.861Z,1.70
2022-09-27T03:49:30.455Z,1.50
2022-09-27T03:51:58.252Z,2.30
2022-09-27T03:54:26.092Z,2.08
2022-09-27T03:56:53.605Z,1.63
2022-09-27T03:59:21.200Z,1.70
2022-09-27T04:02:07.391Z,1.30
2022-09-27T04:04:57.477Z,1.48
2022-09-27T04:07:25.002Z,1.40
2022-09-27T04:09:52.680Z,1.30
2022-09-27T04:12:20.196Z,1.60
2022-09-27T04:14:47.727Z,1.50
2022-09-27T04:17:35.316Z,2.08
2022-09-27T04:20:22.734Z,2.17
2022-09-27T04:22:51.248Z,1.80
2022-09-27T04:25:18.970Z,1.65
2022-09-27T04:27:48.707Z,1.30
2022-09-27T04:30:16.246Z,1.40
2022-09-27T04:33:02.363Z,2.05
2022-09-27T04:36:13.937Z,1.95
2022-09-27T04:38:54.605Z,1.85
2022-09-27T04:41:24.383Z,2.03
2022-09-27T04:43:56.757Z,1.80
2022-09-27T04:46:31.421Z,2.15
2022-09-27T04:49:02.213Z,1.60
2022-09-27T04:51:31.681Z,2.63
2022-09-27T04:53:59.176Z,1.58
2022-09-27T04:56:33.197Z,1.55
2022-09-27T04:59:02.602Z,1.63
2022-09-27T05:01:31.073Z,1.60
2022-09-27T05:04:09.693Z,1.60
2022-09-27T05:06:40.407Z,1.65
2022-09-27T05:09:18.298Z,1.92
2022-09-27T05:11:51.141Z,1.75
2022-09-27T05:14:33.617Z,1.48
2022-09-27T05:17:30.562Z,2.15
2022-09-27T05:20:16.906Z,1.52
2022-09-27T05:23:04.719Z,1.60
2022-09-27T05:25:33.105Z,2.90
2022-09-27T05:28:00.644Z,1.85
2022-09-27T05:30:28.192Z,2.53
2022-09-27T05:33:05.696Z,1.80
2022-09-27T05:35:58.141Z,1.65
2022-09-27T05:38:30.157Z,1.50
2022-09-27T05:41:00.264Z,1.50
2022-09-27T05:43:28.528Z,1.70
2022-09-27T05:45:59.247Z,1.83
2022-09-27T05:48:30.257Z,1.90
2022-09-27T05:51:04.490Z,1.70
2022-09-27T05:53:32.885Z,1.60
2022-09-27T05:56:04.591Z,1.95
2022-09-27T05:59:04.359Z,1.77
2022-09-27T06:01:51.688Z,1.60
2022-09-27T06:04:37.768Z,2.20
2022-09-27T06:07:29.669Z,1.65
2022-09-27T06:09:57.128Z,1.30
2022-09-27T06:12:24.825Z,1.90
2022-09-27T06:14:52.300Z,2.45
2022-09-27T06:17:37.199Z,1.65
2022-09-27T06:20:11.415Z,1.88
2022-09-27T06:22:38.848Z,1.60
2022-09-27T06:25:06.796Z,1.42
2022-09-27T06:27:40.793Z,1.30
2022-09-27T06:30:20.107Z,1.92
2022-09-27T06:32:57.353Z,1.40
2022-09-27T06:35:32.221Z,1.30
2022-09-27T06:38:08.932Z,1.90
2022-09-27T06:40:38.612Z,1.60
2022-09-27T06:43:20.525Z,1.48
2022-09-27T06:46:06.902Z,1.45
2022-09-27T06:48:53.245Z,1.33
2022-09-27T06:51:21.238Z,1.55
2022-09-27T06:53:49.873Z,1.02
2022-09-27T06:56:17.637Z,1.20
2022-09-27T06:59:08.864Z,1.40
2022-09-27T07:01:42.832Z,1.30
2022-09-27T07:04:29.256Z,1.45
2022-09-27T07:07:12.203Z,1.20
2022-09-27T07:09:43.265Z,1.13
2022-09-27T07:12:13.717Z,1.35
2022-09-27T07:14:42.446Z,1.37
2022-09-27T07:17:14.279Z,1.08
2022-09-27T07:19:44.849Z,1.20
2022-09-27T07:22:13.641Z,1.13
2022-09-27T07:24:44.626Z,1.10
2022-09-27T07:27:13.131Z,1.40
2022-09-27T07:29:41.865Z,1.70
2022-09-27T07:32:09.380Z,1.52
2022-09-27T07:34:38.733Z,1.55
2022-09-27T07:37:06.776Z,1.48
2022-09-27T07:39:39.073Z,1.90
2022-09-27T07:42:06.765Z,1.63
2022-09-27T07:44:37.666Z,1.25
2022-09-27T07:47:32.005Z,2.22
2022-09-27T07:50:19.857Z,1.70
2022-09-27T07:52:54.759Z,1.40
2022-09-27T07:58:21.002Z,1.15
2022-09-27T08:00:50.362Z,2.15
2022-09-27T08:03:18.326Z,1.83
2022-09-27T08:05:48.467Z,1.50
2022-09-27T08:08:17.028Z,1.50
2022-09-27T08:10:46.687Z,2.15
2022-09-27T08:13:20.147Z,1.80
2022-09-27T08:15:49.150Z,1.70
2022-09-27T08:18:17.667Z,1.58
2022-09-27T08:20:51.119Z,2.25
2022-09-27T08:23:28.194Z,1.75
2022-09-27T08:26:13.536Z,1.65
2022-09-27T08:29:13.474Z,2.40
2022-09-27T08:31:51.631Z,1.92
2022-09-27T08:34:20.606Z,2.50
2022-09-27T08:36:48.401Z,3.40
2022-09-27T08:39:16.053Z,1.63
2022-09-27T08:42:13.420Z,3.13
2022-09-27T08:45:09.321Z,2.67
2022-09-27T08:48:04.950Z,2.33
2022-09-27T08:50:44.467Z,2.78
2022-09-27T08:53:14.168Z,3.13
2022-09-27T08:55:49.499Z,2.70
2022-09-27T08:58:37.146Z,2.78
2022-09-27T09:01:17.140Z,2.07
2022-09-27T09:04:01.953Z,2.53
2022-09-27T09:06:42.937Z,2.70
2022-09-27T09:12:29.761Z,2.03
2022-09-27T09:17:58.431Z,2.92
2022-09-27T09:21:05.098Z,2.17
2022-09-27T09:23:44.421Z,2.42
2022-09-27T09:26:33.050Z,2.85
2022-09-27T09:29:25.687Z,2.05
2022-09-27T09:31:56.205Z,2.90
2022-09-27T09:34:34.811Z,2.75
2022-09-27T09:37:04.082Z,2.95
2022-09-27T09:39:48.854Z,2.67
2022-09-27T09:42:43.557Z,2.25
2022-09-27T09:45:27.683Z,2.95
2022-09-27T09:48:01.931Z,2.55
2022-09-27T09:50:42.362Z,3.13
2022-09-27T09:53:19.458Z,2.72
2022-09-27T09:56:11.506Z,2.63
2022-09-27T09:58:49.468Z,2.50
2022-09-27T10:01:30.238Z,2.20
2022-09-27T10:03:57.796Z,2.30
2022-09-27T10:06:26.723Z,2.45
2022-09-27T10:08:55.783Z,2.97
2022-09-27T10:11:42.581Z,2.45
2022-09-27T10:14:21.032Z,2.40
2022-09-27T10:16:58.995Z,2.50
2022-09-27T10:19:31.362Z,2.67
2022-09-27T10:22:22.040Z,2.92
2022-09-27T10:25:06.918Z,2.65
2022-09-27T10:27:56.193Z,2.50
2022-09-27T10:30:34.131Z,2.72
2022-09-27T10:33:16.716Z,2.83
2022-09-27T10:35:50.927Z,2.60
2022-09-27T10:38:30.731Z,2.97
2022-09-27T10:41:44.263Z,3.42
2022-09-27T10:44:31.968Z,2.58
2022-09-27T10:47:23.041Z,3.13
2022-09-27T10:50:07.810Z,2.70
2022-09-27T10:53:20.628Z,2.92
2022-09-27T10:55:57.962Z,3.03
2022-09-27T10:58:27.827Z,2.92
2022-09-27T11:01:03.267Z,2.50
2022-09-27T11:03:45.940Z,2.50
2022-09-27T11:06:38.057Z,2.65
2022-09-27T11:09:26.356Z,2.10
2022-09-27T11:12:13.144Z,2.42
2022-09-27T11:14:42.279Z,3.13
2022-09-27T11:17:26.041Z,2.40
2022-09-27T11:20:20.858Z,2.58
2022-09-27T11:23:16.219Z,2.50
2022-09-27T11:26:04.346Z,2.95
2022-09-27T11:28:54.593Z,2.58
2022-09-27T11:31:51.265Z,3.65
2022-09-27T11:34:44.985Z,2.08
2022-09-27T11:37:50.301Z,2.33
2022-09-27T11:40:41.055Z,2.30
2022-09-27T11:43:08.584Z,3.45
2022-09-27T11:48:47.471Z,3.60
2022-09-27T11:51:31.230Z,2.50
2022-09-27T11:54:05.191Z,2.08
2022-09-27T11:56:48.965Z,2.00
2022-09-27T12:00:13.917Z,2.05
2022-09-27T12:02:52.105Z,2.88
2022-09-27T12:05:57.781Z,2.00
2022-09-27T12:09:02.860Z,2.80
2022-09-27T12:11:46.760Z,2.70
2022-09-27T12:14:30.926Z,2.10
2022-09-27T12:17:02.455Z,1.90
2022-09-27T12:19:36.265Z,1.55
2022-09-27T12:22:12.999Z,1.80
2022-09-27T12:24:45.442Z,1.50
2022-09-27T12:27:49.720Z,1.30
2022-09-27T12:30:20.646Z,1.55
2022-09-27T12:33:02.315Z,1.48
2022-09-27T12:35:36.016Z,2.13
2022-09-27T12:38:34.864Z,1.70
2022-09-27T12:41:05.650Z,1.20
2022-09-27T12:43:47.240Z,1.40
2022-09-27T12:46:58.518Z,1.40
2022-09-27T12:49:31.803Z,1.85
2022-09-27T12:52:03.967Z,1.63
2022-09-27T12:54:57.964Z,1.35
2022-09-27T12:57:47.145Z,1.83
2022-09-27T13:00:21.159Z,1.50
2022-09-27T13:03:15.091Z,1.58
2022-09-27T13:06:29.765Z,1.35
2022-09-27T13:09:19.412Z,1.45
2022-09-27T13:12:10.869Z,1.98
2022-09-27T13:14:58.712Z,1.20
2022-09-27T13:18:03.576Z,1.50
2022-09-27T13:20:42.599Z,1.52
2022-09-27T13:23:29.596Z,1.20
2022-09-27T13:26:02.967Z,1.33
2022-09-27T13:28:55.070Z,1.88
2022-09-27T13:32:02.518Z,1.05
2022-09-27T13:34:53.749Z,1.17
2022-09-27T13:37:59.650Z,1.45
2022-09-27T13:40:40.340Z,2.60
2022-09-27T13:43:33.109Z,1.90
2022-09-27T13:46:15.847Z,1.20
2022-09-27T13:49:17.021Z,0.90
2022-09-27T13:52:22.073Z,1.05
2022-09-27T13:55:07.082Z,1.10
2022-09-27T13:57:51.798Z,0.98
2022-09-27T14:00:25.652Z,1.10
2022-09-27T14:03:05.030Z,0.70
2022-09-27T14:05:46.231Z,1.20
2022-09-27T14:08:30.400Z,1.20
2022-09-27T14:10:59.251Z,2.17
2022-09-27T14:13:28.103Z,1.20
2022-09-27T14:16:04.598Z,1.85
2022-09-27T14:18:37.960Z,1.70
2022-09-27T14:21:22.319Z,1.40
2022-09-27T14:24:25.647Z,1.23
2022-09-27T14:27:15.853Z,1.42
2022-09-27T14:29:56.977Z,1.10
2022-09-27T14:32:33.973Z,1.20
2022-09-27T14:35:38.954Z,1.65
2022-09-27T14:38:33.161Z,1.42
2022-09-27T14:41:01.151Z,1.40
2022-09-27T14:43:30.117Z,1.10
2022-09-27T14:46:01.130Z,2.55
2022-09-27T14:48:33.300Z,1.55
2022-09-27T14:51:05.725Z,1.13
2022-09-27T14:53:44.818Z,1.13
2022-09-27T14:56:37.805Z,1.00
2022-09-27T14:59:14.200Z,1.38
2022-09-27T15:01:50.512Z,1.25
2022-09-27T15:04:20.307Z,1.40
2022-09-27T15:06:49.517Z,1.40
2022-09-27T15:09:18.460Z,1.40
2022-09-27T15:11:51.513Z,1.40
2022-09-27T15:14:20.797Z,1.25
2022-09-27T15:16:51.724Z,1.20
2022-09-27T15:21:51.816Z,1.20
2022-09-27T15:24:45.776Z,1.30
2022-09-27T15:27:17.344Z,1.17
2022-09-27T15:29:58.502Z,1.40
2022-09-27T15:32:28.508Z,1.58
2022-09-27T15:34:57.392Z,2.00
2022-09-27T15:37:33.188Z,1.08
2022-09-27T15:40:19.534Z,1.50
2022-09-27T15:42:58.114Z,1.45
2022-09-27T15:45:34.546Z,1.52
2022-09-27T15:48:29.358Z,1.50
2022-09-27T15:50:57.249Z,1.50
2022-09-27T15:53:34.243Z,1.45
2022-09-27T15:56:03.493Z,1.90
2022-09-27T15:58:31.608Z,1.40
2022-09-27T16:01:08.436Z,1.33
2022-09-27T16:03:36.033Z,1.80
2022-09-27T16:06:04.430Z,1.58
2022-09-27T16:08:31.968Z,1.83
2022-09-27T16:11:02.854Z,1.30
2022-09-27T16:13:32.914Z,1.90
2022-09-27T16:16:02.927Z,2.08
2022-09-27T16:18:31.587Z,1.92
2022-09-27T16:21:00.410Z,1.83
2022-09-27T16:23:28.133Z,1.63
2022-09-27T16:25:55.771Z,1.98
2022-09-27T16:28:23.359Z,2.13
2022-09-27T16:30:50.842Z,1.92
2022-09-27T16:33:18.461Z,1.77
2022-09-27T16:35:45.869Z,1.67
2022-09-27T16:38:13.279Z,1.98
2022-09-27T16:40:40.705Z,1.70
2022-09-27T16:43:08.211Z,1.42
2022-09-27T16:45:36.597Z,1.92
2022-09-27T16:48:04.570Z,2.00
2022-09-27T16:50:50.700Z,2.00
2022-09-27T16:53:18.294Z,1.92
2022-09-27T16:55:45.681Z,2.17
2022-09-27T16:58:13.181Z,2.13
2022-09-27T17:00:41.951Z,1.80
2022-09-27T17:03:10.266Z,1.50
2022-09-27T17:05:37.852Z,1.55
2022-09-27T17:08:05.476Z,1.48
2022-09-27T17:10:32.863Z,1.67
2022-09-27T17:13:01.533Z,2.20
2022-09-27T17:15:29.504Z,1.80
2022-09-27T17:17:57.121Z,1.90
2022-09-27T17:20:24.547Z,2.10
2022-09-27T17:22:52.086Z,2.30
2022-09-27T17:25:19.521Z,2.10
2022-09-27T17:27:46.942Z,2.58
2022-09-27T17:30:14.570Z,2.33
2022-09-27T17:32:42.001Z,2.80
2022-09-27T17:35:09.739Z,2.85
2022-09-27T17:37:37.282Z,2.92
2022-09-27T17:40:05.461Z,3.17
2022-09-27T17:42:34.280Z,2.92
2022-09-27T17:45:01.839Z,2.72
2022-09-27T17:47:49.530Z,2.80
2022-09-27T17:50:27.202Z,2.35
2022-09-27T17:52:57.068Z,3.10
2022-09-27T17:55:25.090Z,3.08
2022-09-27T17:57:52.843Z,3.63
2022-09-27T18:00:21.066Z,4.13
2022-09-27T18:02:48.765Z,3.10
2022-09-27T18:05:18.352Z,3.65
2022-09-27T18:07:45.912Z,3.10
2022-09-27T18:10:13.423Z,3.75
2022-09-27T18:12:41.177Z,3.40
2022-09-27T18:15:09.332Z,4.50
2022-09-27T18:17:37.345Z,5.10
2022-09-27T18:20:05.806Z,5.25
2022-09-27T18:22:33.385Z,5.65
2022-09-27T18:25:00.973Z,6.85
2022-09-27T18:27:29.249Z,6.80
2022-09-27T18:29:56.761Z,7.35
2022-09-27T18:32:24.318Z,7.32
2022-09-27T18:34:52.145Z,6.38
2022-09-27T18:37:20.218Z,6.68
2022-09-27T18:39:47.596Z,4.72
2022-09-27T18:42:15.081Z,4.38
2022-09-27T18:44:42.597Z,3.53
2022-09-27T18:47:10.872Z,3.47
2022-09-27T18:49:41.051Z,4.30
2022-09-27T18:52:08.680Z,4.10
2022-09-27T18:54:38.360Z,3.70
2022-09-27T18:57:05.766Z,3.72
2022-09-27T18:59:34.815Z,3.50
2022-09-27T19:02:03.172Z,4.05
2022-09-27T19:04:30.853Z,3.70
2022-09-27T19:06:58.608Z,3.63
2022-09-27T19:09:27.145Z,4.05
2022-09-27T19:11:54.819Z,3.63
2022-09-27T19:14:23.484Z,3.80
2022-09-27T19:16:51.512Z,3.90
2022-09-27T19:19:20.368Z,3.15
2022-09-27T19:21:48.401Z,3.28
2022-09-27T19:24:16.477Z,3.00
2022-09-27T19:26:43.993Z,2.83
2022-09-27T19:29:12.803Z,3.40
2022-09-27T19:31:41.998Z,3.65
2022-09-27T19:34:10.975Z,3.30
2022-09-27T19:36:38.713Z,2.90
2022-09-27T19:39:06.627Z,3.35
2022-09-27T19:41:35.222Z,3.53
2022-09-27T19:44:03.081Z,3.05
2022-09-27T19:46:30.933Z,5.18
2022-09-27T19:49:00.651Z,8.32
2022-09-27T19:51:28.717Z,8.50
2022-09-27T19:53:56.873Z,6.15
2022-09-27T19:56:24.989Z,8.85
2022-09-27T19:58:53.291Z,5.45
2022-09-27T20:01:23.622Z,7.20
2022-09-27T20:03:53.928Z,4.95
2022-09-27T20:06:22.242Z,4.30
2022-09-27T20:08:49.937Z,4.07
2022-09-27T20:11:19.698Z,4.68
2022-09-27T20:13:48.797Z,4.75
2022-09-27T20:16:22.260Z,2.83
2022-09-27T20:18:52.019Z,2.65
2022-09-27T20:21:21.136Z,3.03
2022-09-27T20:23:50.546Z,2.88
2022-09-27T20:26:20.226Z,3.22
2022-09-27T20:28:52.783Z,2.35
2022-09-27T20:31:26.134Z,2.70
2022-09-27T20:33:53.982Z,2.10
2022-09-27T20:36:32.777Z,2.53
2022-09-27T20:39:03.255Z,1.98
2022-09-27T20:41:35.495Z,2.15
2022-09-27T20:44:06.003Z,2.22
2022-09-27T20:46:34.860Z,2.38
2022-09-27T20:49:05.432Z,2.25
2022-09-27T20:51:35.039Z,2.70
2022-09-27T20:54:04.647Z,2.55
2022-09-27T20:56:35.768Z,2.30
2022-09-27T21:01:32.980Z,2.28
2022-09-27T21:04:04.985Z,2.22
2022-09-27T21:06:33.099Z,3.47
2022-09-27T21:09:00.849Z,2.30
2022-09-27T21:11:28.276Z,2.40
2022-09-27T21:13:56.069Z,2.38
2022-09-27T21:16:26.271Z,3.17
2022-09-27T21:18:58.685Z,3.07
2022-09-27T21:21:26.462Z,3.00
2022-09-27T21:23:57.541Z,2.65
2022-09-27T21:26:28.039Z,2.53
2022-09-27T21:28:58.084Z,3.30
2022-09-27T21:31:31.938Z,3.42
2022-09-27T21:34:01.716Z,2.80
2022-09-27T21:36:34.963Z,3.10
2022-09-27T21:39:08.391Z,2.50
2022-09-27T21:41:36.564Z,2.88
2022-09-27T21:44:05.277Z,3.63
2022-09-27T21:46:33.443Z,3.03
2022-09-27T21:49:02.325Z,3.22
2022-09-27T21:51:36.969Z,3.03
2022-09-27T21:54:06.831Z,3.30
2022-09-27T21:56:37.424Z,3.35
2022-09-27T21:59:06.465Z,2.90
2022-09-27T22:01:35.071Z,3.10
2022-09-27T22:04:06.082Z,2.97
2022-09-27T22:06:36.414Z,2.85
2022-09-27T22:09:11.709Z,2.75
2022-09-27T22:11:44.007Z,3.55
2022-09-27T22:14:12.070Z,4.07
2022-09-27T22:16:39.650Z,3.08
2022-09-27T22:19:07.788Z,3.20
2022-09-27T22:21:38.143Z,3.00
2022-09-27T22:24:13.182Z,3.17
2022-09-27T22:26:43.005Z,2.75
2022-09-27T22:29:10.525Z,3.17
2022-09-27T22:31:38.442Z,3.25
2022-09-27T22:34:10.906Z,2.47
2022-09-27T22:36:38.364Z,3.10
2022-09-27T22:39:06.279Z,2.85
2022-09-27T22:41:33.831Z,3.20
2022-09-27T22:44:01.481Z,3.65
2022-09-27T22:46:28.976Z,3.65
2022-09-27T22:48:56.478Z,2.60
2022-09-27T22:51:23.858Z,3.10
2022-09-27T22:53:51.304Z,2.88
2022-09-27T22:56:20.587Z,2.70
2022-09-27T22:58:49.027Z,3.55
2022-09-27T23:01:22.487Z,3.42
2022-09-27T23:03:52.351Z,2.90
2022-09-27T23:06:21.739Z,3.22
2022-09-27T23:08:49.895Z,2.85
2022-09-27T23:11:22.117Z,3.00
2022-09-27T23:13:50.650Z,2.45
2022-09-27T23:16:21.224Z,2.63
2022-09-27T23:18:51.609Z,3.10
2022-09-27T23:21:18.959Z,3.50
2022-09-27T23:23:46.700Z,2.85
2022-09-27T23:26:16.160Z,2.40
2022-09-27T23:28:43.645Z,2.75
2022-09-27T23:31:16.829Z,2.97
2022-09-27T23:33:48.459Z,2.42
2022-09-27T23:36:23.930Z,3.08
2022-09-27T23:38:51.644Z,3.05
2022-09-27T23:41:19.759Z,2.63
2022-09-27T23:43:49.779Z,2.60
2022-09-27T23:46:18.561Z,2.72
2022-09-27T23:48:46.096Z,2.38
2022-09-27T23:51:13.559Z,2.88
2022-09-27T23:53:41.061Z,2.25
2022-09-27T23:56:13.125Z,4.30
2022-09-27T23:58:43.681Z,2.90
